sensor_id;sensor_type;location;lat;lon;timestamp;temperature;humidity
52044;DHT22;38053;53.100;6.078;2024-03-08T10:59:37;6.40;99.90
52044;DHT22;38053;53.100;6.078;2024-03-08T11:20:19;7.00;99.90
52044;DHT22;38053;53.100;6.078;2024-03-08T11:22:50;7.10;99.90
52044;DHT22;38053;53.100;6.078;2024-03-08T11:28:17;7.30;99.90
52044;DHT22;38053;53.100;6.078;2024-03-08T11:33:31;7.70;99.90
52044;DHT22;38053;53.100;6.078;2024-03-08T11:36:07;8.10;99.90
52044;DHT22;38053;53.100;6.078;2024-03-08T11:38:43;8.40;99.90
52044;DHT22;38053;53.100;6.078;2024-03-08T11:41:12;8.70;99.90
52044;DHT22;38053;53.100;6.078;2024-03-08T11:43:42;8.90;99.90
52044;DHT22;38053;53.100;6.078;2024-03-08T11:46:09;9.00;99.90
52044;DHT22;38053;53.100;6.078;2024-03-08T11:48:35;9.00;99.90
52044;DHT22;38053;53.100;6.078;2024-03-08T12:19:40;10.50;99.90
52044;DHT22;38053;53.100;6.078;2024-03-08T12:22:14;10.80;99.90
52044;DHT22;38053;53.100;6.078;2024-03-08T12:24:40;11.00;99.90
52044;DHT22;38053;53.100;6.078;2024-03-08T12:27:19;11.00;99.90
52044;DHT22;38053;53.100;6.078;2024-03-08T12:29:45;11.30;99.90
52044;DHT22;38053;53.100;6.078;2024-03-08T12:32:12;11.30;99.90
52044;DHT22;38053;53.100;6.078;2024-03-08T12:34:52;11.40;99.90
52044;DHT22;38053;53.100;6.078;2024-03-08T12:37:20;11.20;99.90
52044;DHT22;38053;53.100;6.078;2024-03-08T12:39:45;11.40;99.90
52044;DHT22;38053;53.100;6.078;2024-03-08T12:42:20;11.80;99.90
52044;DHT22;38053;53.100;6.078;2024-03-08T12:44:48;11.90;99.90
52044;DHT22;38053;53.100;6.078;2024-03-08T12:47:14;11.90;99.90
52044;DHT22;38053;53.100;6.078;2024-03-08T12:49:40;12.00;99.90
52044;DHT22;38053;53.100;6.078;2024-03-08T12:52:09;12.40;99.90
52044;DHT22;38053;53.100;6.078;2024-03-08T12:54:35;12.40;99.90
52044;DHT22;38053;53.100;6.078;2024-03-08T12:57:01;12.50;99.90
52044;DHT22;38053;53.100;6.078;2024-03-08T12:59:28;12.80;99.90
52044;DHT22;38053;53.100;6.078;2024-03-08T13:01:56;12.70;99.90
52044;DHT22;38053;53.100;6.078;2024-03-08T13:04:25;12.60;99.90
52044;DHT22;38053;53.100;6.078;2024-03-08T13:06:51;12.80;99.90
52044;DHT22;38053;53.100;6.078;2024-03-08T13:09:19;12.90;99.90
52044;DHT22;38053;53.100;6.078;2024-03-08T13:11:47;12.90;99.90
52044;DHT22;38053;53.100;6.078;2024-03-08T13:14:13;12.90;99.90
52044;DHT22;38053;53.100;6.078;2024-03-08T13:16:48;12.80;99.90
52044;DHT22;38053;53.100;6.078;2024-03-08T13:19:17;12.60;99.90
52044;DHT22;38053;53.100;6.078;2024-03-08T13:21:42;12.10;99.90
52044;DHT22;38053;53.100;6.078;2024-03-08T13:24:08;12.20;99.90
52044;DHT22;38053;53.100;6.078;2024-03-08T13:26:34;12.20;99.90
52044;DHT22;38053;53.100;6.078;2024-03-08T13:29:00;11.70;99.90
52044;DHT22;38053;53.100;6.078;2024-03-08T13:31:25;11.50;99.90
52044;DHT22;38053;53.100;6.078;2024-03-08T13:33:51;11.50;99.90
52044;DHT22;38053;53.100;6.078;2024-03-08T13:36:30;11.30;99.90
52044;DHT22;38053;53.100;6.078;2024-03-08T13:39:35;11.10;99.90
52044;DHT22;38053;53.100;6.078;2024-03-08T13:42:12;10.90;99.90
52044;DHT22;38053;53.100;6.078;2024-03-08T13:48:19;10.80;99.90
52044;DHT22;38053;53.100;6.078;2024-03-08T13:50:45;10.60;99.90
52044;DHT22;38053;53.100;6.078;2024-03-08T13:53:10;10.80;99.90
52044;DHT22;38053;53.100;6.078;2024-03-08T13:55:37;11.10;99.90
52044;DHT22;38053;53.100;6.078;2024-03-08T13:58:03;11.10;99.90
52044;DHT22;38053;53.100;6.078;2024-03-08T14:00:29;10.80;99.90
52044;DHT22;38053;53.100;6.078;2024-03-08T14:02:59;10.60;99.90
52044;DHT22;38053;53.100;6.078;2024-03-08T14:05:24;10.90;99.90
52044;DHT22;38053;53.100;6.078;2024-03-08T14:07:50;11.20;99.90
52044;DHT22;38053;53.100;6.078;2024-03-08T14:10:17;11.20;99.90
52044;DHT22;38053;53.100;6.078;2024-03-08T14:12:45;11.00;99.90
52044;DHT22;38053;53.100;6.078;2024-03-08T14:15:13;11.00;99.90
52044;DHT22;38053;53.100;6.078;2024-03-08T14:17:39;11.10;99.90
52044;DHT22;38053;53.100;6.078;2024-03-08T14:20:07;11.00;99.90
52044;DHT22;38053;53.100;6.078;2024-03-08T14:22:42;10.80;99.90
52044;DHT22;38053;53.100;6.078;2024-03-08T14:25:11;10.70;99.90
52044;DHT22;38053;53.100;6.078;2024-03-08T14:27:46;10.50;99.90
52044;DHT22;38053;53.100;6.078;2024-03-08T14:30:12;10.40;99.90
52044;DHT22;38053;53.100;6.078;2024-03-08T14:32:38;10.90;99.90
52044;DHT22;38053;53.100;6.078;2024-03-08T14:35:07;11.20;99.90
52044;DHT22;38053;53.100;6.078;2024-03-08T14:37:33;11.50;99.90
52044;DHT22;38053;53.100;6.078;2024-03-08T14:39:59;11.70;99.90
52044;DHT22;38053;53.100;6.078;2024-03-08T14:42:24;11.90;99.90
52044;DHT22;38053;53.100;6.078;2024-03-08T14:44:51;11.50;99.90
52044;DHT22;38053;53.100;6.078;2024-03-08T14:47:19;10.80;99.90
52044;DHT22;38053;53.100;6.078;2024-03-08T14:49:45;10.40;99.90
52044;DHT22;38053;53.100;6.078;2024-03-08T14:52:13;10.40;99.90
52044;DHT22;38053;53.100;6.078;2024-03-08T14:54:57;10.80;99.90
52044;DHT22;38053;53.100;6.078;2024-03-08T14:57:49;11.20;99.90
52044;DHT22;38053;53.100;6.078;2024-03-08T15:00:18;11.40;99.90
52044;DHT22;38053;53.100;6.078;2024-03-08T15:03:00;11.40;99.90
52044;DHT22;38053;53.100;6.078;2024-03-08T15:05:34;11.50;99.90
52044;DHT22;38053;53.100;6.078;2024-03-08T15:08:03;11.40;99.90
52044;DHT22;38053;53.100;6.078;2024-03-08T15:10:35;11.00;99.90
52044;DHT22;38053;53.100;6.078;2024-03-08T15:13:04;11.10;99.90
52044;DHT22;38053;53.100;6.078;2024-03-08T15:15:42;11.10;99.90
52044;DHT22;38053;53.100;6.078;2024-03-08T15:18:08;11.40;99.90
52044;DHT22;38053;53.100;6.078;2024-03-08T15:20:36;11.40;99.90
52044;DHT22;38053;53.100;6.078;2024-03-08T15:23:02;11.40;99.90
52044;DHT22;38053;53.100;6.078;2024-03-08T15:25:29;11.50;99.90
52044;DHT22;38053;53.100;6.078;2024-03-08T15:27:56;11.70;99.90
52044;DHT22;38053;53.100;6.078;2024-03-08T15:30:24;11.60;99.90
52044;DHT22;38053;53.100;6.078;2024-03-08T15:32:52;11.70;99.90
52044;DHT22;38053;53.100;6.078;2024-03-08T15:35:25;11.50;99.90
52044;DHT22;38053;53.100;6.078;2024-03-08T15:37:52;11.60;99.90
52044;DHT22;38053;53.100;6.078;2024-03-08T15:40:18;11.60;99.90
52044;DHT22;38053;53.100;6.078;2024-03-08T15:42:55;11.60;99.90
52044;DHT22;38053;53.100;6.078;2024-03-08T15:45:22;11.70;99.90
52044;DHT22;38053;53.100;6.078;2024-03-08T15:47:54;11.70;99.90
52044;DHT22;38053;53.100;6.078;2024-03-08T15:50:23;11.50;99.90
52044;DHT22;38053;53.100;6.078;2024-03-08T15:52:52;11.70;99.90
52044;DHT22;38053;53.100;6.078;2024-03-08T15:55:20;11.20;99.90
52044;DHT22;38053;53.100;6.078;2024-03-08T15:57:49;10.90;99.90
52044;DHT22;38053;53.100;6.078;2024-03-08T16:00:19;10.90;99.90
52044;DHT22;38053;53.100;6.078;2024-03-08T16:03:07;10.90;99.90
52044;DHT22;38053;53.100;6.078;2024-03-08T16:05:42;11.00;99.90
52044;DHT22;38053;53.100;6.078;2024-03-08T16:08:24;11.00;99.90
52044;DHT22;38053;53.100;6.078;2024-03-08T16:10:56;10.80;99.90
52044;DHT22;38053;53.100;6.078;2024-03-08T16:13:25;10.40;99.90
52044;DHT22;38053;53.100;6.078;2024-03-08T16:15:53;9.90;99.90
52044;DHT22;38053;53.100;6.078;2024-03-08T16:18:20;9.40;99.90
52044;DHT22;38053;53.100;6.078;2024-03-08T16:20:50;9.00;99.90
52044;DHT22;38053;53.100;6.078;2024-03-08T16:23:16;8.60;99.90
52044;DHT22;38053;53.100;6.078;2024-03-08T16:25:42;8.50;99.90
52044;DHT22;38053;53.100;6.078;2024-03-08T16:28:08;8.40;99.90
52044;DHT22;38053;53.100;6.078;2024-03-08T16:30:34;8.10;99.90
52044;DHT22;38053;53.100;6.078;2024-03-08T16:33:00;8.10;99.90
52044;DHT22;38053;53.100;6.078;2024-03-08T16:35:25;8.00;99.90
52044;DHT22;38053;53.100;6.078;2024-03-08T16:37:53;7.90;99.90
52044;DHT22;38053;53.100;6.078;2024-03-08T16:40:19;7.80;99.90
52044;DHT22;38053;53.100;6.078;2024-03-08T16:42:49;7.70;99.90
52044;DHT22;38053;53.100;6.078;2024-03-08T16:45:19;7.60;99.90
52044;DHT22;38053;53.100;6.078;2024-03-08T16:47:45;7.60;99.90
52044;DHT22;38053;53.100;6.078;2024-03-08T16:50:17;7.50;99.90
52044;DHT22;38053;53.100;6.078;2024-03-08T16:52:43;7.40;99.90
52044;DHT22;38053;53.100;6.078;2024-03-08T17:02:32;7.10;99.90
52044;DHT22;38053;53.100;6.078;2024-03-08T17:04:57;7.00;99.90
52044;DHT22;38053;53.100;6.078;2024-03-08T17:07:51;7.00;99.90
52044;DHT22;38053;53.100;6.078;2024-03-08T17:10:35;6.90;99.90
52044;DHT22;38053;53.100;6.078;2024-03-08T17:13:11;6.80;99.90
52044;DHT22;38053;53.100;6.078;2024-03-08T17:15:43;6.80;99.90
52044;DHT22;38053;53.100;6.078;2024-03-08T17:18:11;6.70;99.90
52044;DHT22;38053;53.100;6.078;2024-03-08T17:21:00;6.60;99.90
52044;DHT22;38053;53.100;6.078;2024-03-08T17:23:28;6.60;99.90
52044;DHT22;38053;53.100;6.078;2024-03-08T17:25:57;6.50;99.90
52044;DHT22;38053;53.100;6.078;2024-03-08T17:28:26;6.40;99.90
52044;DHT22;38053;53.100;6.078;2024-03-08T17:31:04;6.40;99.90
52044;DHT22;38053;53.100;6.078;2024-03-08T17:33:32;6.30;99.90
52044;DHT22;38053;53.100;6.078;2024-03-08T17:36:03;6.30;99.90
52044;DHT22;38053;53.100;6.078;2024-03-08T17:38:35;6.20;99.90
52044;DHT22;38053;53.100;6.078;2024-03-08T17:41:00;6.10;99.90
52044;DHT22;38053;53.100;6.078;2024-03-08T17:43:29;6.10;99.90
52044;DHT22;38053;53.100;6.078;2024-03-08T17:46:00;6.10;99.90
52044;DHT22;38053;53.100;6.078;2024-03-08T17:48:28;6.00;99.90
52044;DHT22;38053;53.100;6.078;2024-03-08T17:51:13;6.00;99.90
52044;DHT22;38053;53.100;6.078;2024-03-08T17:53:41;6.00;99.90
52044;DHT22;38053;53.100;6.078;2024-03-08T17:56:34;5.90;99.90
52044;DHT22;38053;53.100;6.078;2024-03-08T17:58:59;5.90;99.90
52044;DHT22;38053;53.100;6.078;2024-03-08T18:01:31;5.80;99.90
52044;DHT22;38053;53.100;6.078;2024-03-08T18:03:57;5.80;99.90
52044;DHT22;38053;53.100;6.078;2024-03-08T18:06:25;5.80;99.90
52044;DHT22;38053;53.100;6.078;2024-03-08T18:08:51;5.70;99.90
52044;DHT22;38053;53.100;6.078;2024-03-08T18:11:17;5.70;99.90
52044;DHT22;38053;53.100;6.078;2024-03-08T18:13:43;5.70;99.90
52044;DHT22;38053;53.100;6.078;2024-03-08T18:16:18;5.70;99.90
52044;DHT22;38053;53.100;6.078;2024-03-08T18:23:17;5.60;99.90
52044;DHT22;38053;53.100;6.078;2024-03-08T18:25:52;5.60;99.90
52044;DHT22;38053;53.100;6.078;2024-03-08T18:32:32;5.50;99.90
52044;DHT22;38053;53.100;6.078;2024-03-08T18:34:59;5.50;99.90
52044;DHT22;38053;53.100;6.078;2024-03-08T18:37:25;5.40;99.90
52044;DHT22;38053;53.100;6.078;2024-03-08T18:39:59;5.50;99.90
52044;DHT22;38053;53.100;6.078;2024-03-08T18:42:25;5.40;99.90
52044;DHT22;38053;53.100;6.078;2024-03-08T18:44:54;5.40;99.90
52044;DHT22;38053;53.100;6.078;2024-03-08T18:47:23;5.40;99.90
52044;DHT22;38053;53.100;6.078;2024-03-08T18:52:54;5.40;99.90
52044;DHT22;38053;53.100;6.078;2024-03-08T18:55:23;5.30;99.90
52044;DHT22;38053;53.100;6.078;2024-03-08T18:57:54;5.30;99.90
52044;DHT22;38053;53.100;6.078;2024-03-08T19:00:23;5.30;99.90
52044;DHT22;38053;53.100;6.078;2024-03-08T19:03:00;5.30;99.90
52044;DHT22;38053;53.100;6.078;2024-03-08T19:05:26;5.20;99.90
52044;DHT22;38053;53.100;6.078;2024-03-08T19:08:02;5.20;99.90
52044;DHT22;38053;53.100;6.078;2024-03-08T19:10:39;5.10;99.90
52044;DHT22;38053;53.100;6.078;2024-03-08T19:13:06;5.10;99.90
52044;DHT22;38053;53.100;6.078;2024-03-08T19:15:34;5.00;99.90
52044;DHT22;38053;53.100;6.078;2024-03-08T19:18:00;5.00;99.90
52044;DHT22;38053;53.100;6.078;2024-03-08T19:20:28;5.00;99.90
52044;DHT22;38053;53.100;6.078;2024-03-08T19:22:58;4.90;99.90
52044;DHT22;38053;53.100;6.078;2024-03-08T19:25:33;4.90;99.90
52044;DHT22;38053;53.100;6.078;2024-03-08T19:30:54;4.90;99.90
52044;DHT22;38053;53.100;6.078;2024-03-08T19:33:22;4.80;99.90
52044;DHT22;38053;53.100;6.078;2024-03-08T19:35:48;4.80;99.90
52044;DHT22;38053;53.100;6.078;2024-03-08T19:38:13;4.70;99.90
52044;DHT22;38053;53.100;6.078;2024-03-08T19:40:40;4.70;99.90
52044;DHT22;38053;53.100;6.078;2024-03-08T19:47:04;4.70;99.90
52044;DHT22;38053;53.100;6.078;2024-03-08T19:49:31;4.70;99.90
52044;DHT22;38053;53.100;6.078;2024-03-08T20:06:01;4.40;99.90
52044;DHT22;38053;53.100;6.078;2024-03-08T20:08:31;4.40;99.90
52044;DHT22;38053;53.100;6.078;2024-03-08T20:10:58;4.40;99.90
52044;DHT22;38053;53.100;6.078;2024-03-08T20:13:31;4.40;99.90
52044;DHT22;38053;53.100;6.078;2024-03-08T20:19:40;4.30;99.90
52044;DHT22;38053;53.100;6.078;2024-03-08T20:22:05;4.30;99.90
52044;DHT22;38053;53.100;6.078;2024-03-08T20:24:31;4.30;99.90
52044;DHT22;38053;53.100;6.078;2024-03-08T20:26:57;4.30;99.90
52044;DHT22;38053;53.100;6.078;2024-03-08T20:29:24;4.30;99.90
52044;DHT22;38053;53.100;6.078;2024-03-08T20:31:56;4.30;99.90
52044;DHT22;38053;53.100;6.078;2024-03-08T20:34:21;4.30;99.90
52044;DHT22;38053;53.100;6.078;2024-03-08T20:36:48;4.30;99.90
52044;DHT22;38053;53.100;6.078;2024-03-08T20:39:15;4.30;99.90
52044;DHT22;38053;53.100;6.078;2024-03-08T20:41:41;4.40;99.90
52044;DHT22;38053;53.100;6.078;2024-03-08T20:44:07;4.40;99.90
52044;DHT22;38053;53.100;6.078;2024-03-08T20:46:41;4.40;99.90
52044;DHT22;38053;53.100;6.078;2024-03-08T20:49:10;4.40;99.90
52044;DHT22;38053;53.100;6.078;2024-03-08T20:51:38;4.40;99.90
52044;DHT22;38053;53.100;6.078;2024-03-08T22:24:02;3.80;99.90
52044;DHT22;38053;53.100;6.078;2024-03-08T22:26:31;3.70;99.90
52044;DHT22;38053;53.100;6.078;2024-03-08T22:28:59;3.80;99.90
52044;DHT22;38053;53.100;6.078;2024-03-08T22:31:25;3.80;99.90
52044;DHT22;38053;53.100;6.078;2024-03-08T22:33:51;3.70;99.90
52044;DHT22;38053;53.100;6.078;2024-03-08T22:36:17;3.70;99.90
52044;DHT22;38053;53.100;6.078;2024-03-08T22:38:47;3.70;99.90
52044;DHT22;38053;53.100;6.078;2024-03-08T22:41:13;3.70;99.90
52044;DHT22;38053;53.100;6.078;2024-03-08T22:43:40;3.70;99.90
52044;DHT22;38053;53.100;6.078;2024-03-08T22:46:06;3.70;99.90
52044;DHT22;38053;53.100;6.078;2024-03-08T22:48:34;3.70;99.90
52044;DHT22;38053;53.100;6.078;2024-03-08T22:51:02;3.60;99.90
52044;DHT22;38053;53.100;6.078;2024-03-08T22:53:36;3.70;99.90
52044;DHT22;38053;53.100;6.078;2024-03-08T22:59:09;3.60;99.90
52044;DHT22;38053;53.100;6.078;2024-03-08T23:01:35;3.60;99.90
52044;DHT22;38053;53.100;6.078;2024-03-08T23:04:01;3.60;99.90
52044;DHT22;38053;53.100;6.078;2024-03-08T23:06:26;3.60;99.90
52044;DHT22;38053;53.100;6.078;2024-03-08T23:08:52;3.60;99.90
52044;DHT22;38053;53.100;6.078;2024-03-08T23:11:19;3.60;99.90
52044;DHT22;38053;53.100;6.078;2024-03-08T23:13:52;3.50;99.90
52044;DHT22;38053;53.100;6.078;2024-03-08T23:16:18;3.40;99.90
52044;DHT22;38053;53.100;6.078;2024-03-08T23:18:51;3.40;99.90
52044;DHT22;38053;53.100;6.078;2024-03-08T23:21:18;3.50;99.90
52044;DHT22;38053;53.100;6.078;2024-03-08T23:23:43;3.50;99.90
52044;DHT22;38053;53.100;6.078;2024-03-08T23:26:09;3.40;99.90
52044;DHT22;38053;53.100;6.078;2024-03-08T23:28:35;3.40;99.90
52044;DHT22;38053;53.100;6.078;2024-03-08T23:31:01;3.40;99.90
52044;DHT22;38053;53.100;6.078;2024-03-08T23:33:29;3.40;99.90
52044;DHT22;38053;53.100;6.078;2024-03-08T23:35:55;3.30;99.90
52044;DHT22;38053;53.100;6.078;2024-03-08T23:38:21;3.30;99.90
52044;DHT22;38053;53.100;6.078;2024-03-08T23:40:46;3.30;99.90
52044;DHT22;38053;53.100;6.078;2024-03-08T23:43:12;3.20;99.90
52044;DHT22;38053;53.100;6.078;2024-03-08T23:45:41;3.20;99.90
52044;DHT22;38053;53.100;6.078;2024-03-08T23:48:07;3.10;99.90
52044;DHT22;38053;53.100;6.078;2024-03-08T23:50:33;3.10;99.90
52044;DHT22;38053;53.100;6.078;2024-03-08T23:53:00;3.00;99.90
52044;DHT22;38053;53.100;6.078;2024-03-08T23:55:27;3.00;99.90
52044;DHT22;38053;53.100;6.078;2024-03-08T23:57:57;3.00;99.90
